Time;durP1;ratioP1;P1;durP2;ratioP2;P2;SDS_P1;SDS_P2;PMS_P1;PMS_P2;Temp;Humidity;BMP_temperature;BMP_pressure;BME280_temperature;BME280_humidity;BME280_pressure;Samples;Min_cycle;Max_cycle;Signal;HPM_P1;HPM_P2
2023/05/31 00:00:19;;;;;;;9.10;5.30;;;;;;;12.90;100.00;101561.16;701058;28;1412;-58
2023/05/31 00:00:40;;;;;;;9.48;5.38;;;;;;;12.90;100.00;101562.88;699170;28;4446;-58
2023/05/31 00:01:00;;;;;;;9.03;5.13;;;;;;;12.88;100.00;101562.91;701096;28;989;-58
2023/05/31 00:01:20;;;;;;;9.10;5.03;;;;;;;12.86;100.00;101554.16;701261;28;1290;-58
2023/05/31 00:01:41;;;;;;;9.70;5.43;;;;;;;12.87;100.00;101550.63;699489;28;1606;-59
2023/05/31 00:02:01;;;;;;;8.95;5.30;;;;;;;12.85;100.00;101549.78;700102;28;1622;-58
2023/05/31 00:02:22;;;;;;;9.13;5.30;;;;;;;12.90;100.00;101553.28;701240;28;1216;-58
2023/05/31 00:02:42;;;;;;;8.27;5.10;;;;;;;12.91;100.00;101557.63;699256;28;1557;-57
2023/05/31 00:03:02;;;;;;;8.32;5.28;;;;;;;13.01;100.00;101561.13;701635;28;835;-58
2023/05/31 00:03:23;;;;;;;10.57;5.50;;;;;;;13.03;100.00;101561.13;701003;28;1554;-58
2023/05/31 00:03:43;;;;;;;11.07;5.10;;;;;;;13.02;100.00;101559.41;698485;28;4561;-58
2023/05/31 00:04:03;;;;;;;9.73;5.10;;;;;;;13.02;100.00;101556.78;699177;28;955;-58
2023/05/31 00:04:24;;;;;;;9.17;5.00;;;;;;;12.95;100.00;101559.38;699408;28;970;-58
2023/05/31 00:04:44;;;;;;;9.80;5.35;;;;;;;12.90;100.00;101553.28;697506;28;1531;-57
2023/05/31 00:05:05;;;;;;;9.40;5.40;;;;;;;12.89;100.00;101554.16;698706;28;1404;-58
2023/05/31 00:05:26;;;;;;;9.27;5.00;;;;;;;12.89;100.00;101559.41;698782;28;1053;-58
2023/05/31 00:05:46;;;;;;;9.37;5.00;;;;;;;12.92;100.00;101561.16;697802;28;1566;-58
2023/05/31 00:06:07;;;;;;;8.60;5.27;;;;;;;12.86;100.00;101554.16;699009;28;919;-57
2023/05/31 00:06:27;;;;;;;9.93;5.25;;;;;;;12.85;100.00;101559.38;699109;28;868;-57
2023/05/31 00:06:48;;;;;;;9.00;5.00;;;;;;;12.90;100.00;101550.66;697618;28;4593;-58
2023/05/31 00:07:08;;;;;;;8.20;5.00;;;;;;;12.88;100.00;101562.91;698712;28;1057;-58
2023/05/31 00:07:32;;;;;;;8.38;5.13;;;;;;;12.84;100.00;101557.66;697668;28;1640;-58
2023/05/31 00:07:52;;;;;;;8.90;5.18;;;;;;;12.85;100.00;101562.00;698807;28;1054;-58
2023/05/31 00:08:12;;;;;;;10.20;4.95;;;;;;;12.89;100.00;101556.78;698492;28;1502;-58
2023/05/31 00:08:33;;;;;;;9.97;5.00;;;;;;;12.92;100.00;101556.78;697786;28;1507;-58
2023/05/31 00:08:53;;;;;;;8.90;4.90;;;;;;;12.91;100.00;101556.78;699225;28;1025;-58
2023/05/31 00:09:14;;;;;;;9.30;5.00;;;;;;;12.90;100.00;101566.41;697966;28;1562;-58
2023/05/31 00:09:34;;;;;;;9.17;5.00;;;;;;;12.88;100.00;101555.03;697816;28;1486;-58
2023/05/31 00:09:55;;;;;;;10.73;5.88;;;;;;;12.88;100.00;101559.41;700398;28;4602;-58
2023/05/31 00:10:15;;;;;;;9.57;5.45;;;;;;;12.86;100.00;101559.41;700737;28;987;-58
2023/05/31 00:10:36;;;;;;;9.17;5.30;;;;;;;12.84;100.00;101561.13;700585;28;1556;-58
2023/05/31 00:10:57;;;;;;;9.88;5.20;;;;;;;12.83;100.00;101554.13;701897;28;931;-58
2023/05/31 00:11:17;;;;;;;9.52;4.97;;;;;;;12.80;100.00;101559.38;701726;28;971;-58
2023/05/31 00:11:38;;;;;;;9.93;5.13;;;;;;;12.80;100.00;101564.63;699939;28;1550;-58
2023/05/31 00:11:59;;;;;;;8.70;4.80;;;;;;;12.76;100.00;101562.88;701852;28;998;-57
2023/05/31 00:12:19;;;;;;;7.78;4.85;;;;;;;12.79;100.00;101560.25;700916;28;919;-58
2023/05/31 00:12:39;;;;;;;9.60;5.17;;;;;;;12.77;100.00;101559.41;699769;28;4414;-58
2023/05/31 00:13:00;;;;;;;8.55;5.13;;;;;;;12.74;100.00;101559.41;700987;28;1540;-57
2023/05/31 00:13:20;;;;;;;8.03;4.83;;;;;;;12.87;100.00;101555.88;701104;28;899;-58
2023/05/31 00:13:40;;;;;;;9.07;4.80;;;;;;;12.84;100.00;101555.91;700513;28;1773;-58
2023/05/31 00:14:01;;;;;;;8.18;4.88;;;;;;;12.90;100.00;101557.63;701705;28;982;-57
2023/05/31 00:14:21;;;;;;;8.40;5.00;;;;;;;12.89;100.00;101559.41;701100;28;903;-58
2023/05/31 00:14:42;;;;;;;9.48;5.25;;;;;;;12.89;100.00;101566.38;700982;28;1434;-58
2023/05/31 00:15:02;;;;;;;9.17;5.03;;;;;;;12.86;100.00;101563.75;701794;28;800;-58
2023/05/31 00:15:23;;;;;;;8.13;4.95;;;;;;;12.84;100.00;101565.53;701218;28;1276;-58
2023/05/31 00:15:43;;;;;;;8.80;5.33;;;;;;;12.80;100.00;101566.41;699929;28;4742;-57
2023/05/31 00:16:04;;;;;;;8.25;5.22;;;;;;;12.75;100.00;101559.41;700969;28;1476;-57
2023/05/31 00:16:24;;;;;;;9.00;5.10;;;;;;;12.75;100.00;101566.38;698098;28;3099;-58
2023/05/31 00:16:45;;;;;;;9.13;5.10;;;;;;;12.73;100.00;101563.75;697495;28;1467;-58
2023/05/31 00:17:05;;;;;;;8.17;4.80;;;;;;;12.70;100.00;101568.16;699270;28;872;-57
2023/05/31 00:17:26;;;;;;;9.13;4.82;;;;;;;12.66;100.00;101562.00;701601;28;989;-58
2023/05/31 00:17:46;;;;;;;9.47;5.20;;;;;;;12.65;100.00;101562.00;697368;28;1610;-58
2023/05/31 00:18:06;;;;;;;9.93;5.50;;;;;;;12.65;100.00;101564.63;699112;28;896;-58
2023/05/31 00:18:27;;;;;;;10.77;5.60;;;;;;;12.68;100.00;101573.41;698617;28;947;-58
2023/05/31 00:18:47;;;;;;;8.88;5.10;;;;;;;12.67;100.00;101569.00;699591;28;4414;-57
2023/05/31 00:19:07;;;;;;;9.03;5.40;;;;;;;12.70;100.00;101574.25;701525;28;1467;-58
2023/05/31 00:19:28;;;;;;;9.00;5.43;;;;;;;12.72;100.00;101572.53;695710;28;1972;-57
2023/05/31 00:19:48;;;;;;;9.45;5.40;;;;;;;12.73;100.00;101565.50;695311;28;824;-58
2023/05/31 00:20:09;;;;;;;9.40;5.00;;;;;;;12.72;100.00;101569.91;694387;28;765;-57
2023/05/31 00:20:30;;;;;;;8.88;5.25;;;;;;;12.72;100.00;101564.66;693413;28;1645;-58
2023/05/31 00:20:50;;;;;;;9.98;5.47;;;;;;;12.71;100.00;101570.75;694289;28;1457;-58
2023/05/31 00:21:11;;;;;;;9.27;5.00;;;;;;;12.70;100.00;101568.16;696099;28;1273;-58
2023/05/31 00:21:31;;;;;;;8.23;4.68;;;;;;;12.68;100.00;101564.63;700383;28;1435;-58
2023/05/31 00:21:52;;;;;;;9.27;4.93;;;;;;;12.75;100.00;101569.00;700935;28;4505;-57
2023/05/31 00:22:15;;;;;;;9.82;4.97;;;;;;;12.75;100.00;101566.38;701742;28;884;-58
2023/05/31 00:22:35;;;;;;;9.23;4.72;;;;;;;12.75;100.00;101569.00;700001;28;1540;-58
2023/05/31 00:22:55;;;;;;;9.67;5.40;;;;;;;12.76;100.00;101568.13;701302;28;1097;-58
2023/05/31 00:23:16;;;;;;;9.07;5.28;;;;;;;12.73;100.00;101566.38;701352;28;784;-57
2023/05/31 00:23:36;;;;;;;8.17;4.63;;;;;;;12.63;100.00;101566.34;700852;28;934;-58
2023/05/31 00:23:57;;;;;;;7.63;4.50;;;;;;;12.72;100.00;101558.50;701894;28;950;-58
2023/05/31 00:24:17;;;;;;;8.83;5.03;;;;;;;12.79;100.00;101557.63;701590;28;1498;-58
2023/05/31 00:24:38;;;;;;;8.73;5.13;;;;;;;12.81;100.00;101570.75;699934;28;1526;-58
2023/05/31 00:24:58;;;;;;;9.23;4.97;;;;;;;12.75;100.00;101561.13;701034;28;4220;-58
2023/05/31 00:25:19;;;;;;;8.77;5.05;;;;;;;12.73;100.00;101562.91;701779;28;896;-57
2023/05/31 00:25:39;;;;;;;8.43;5.03;;;;;;;12.71;100.00;101565.53;700563;28;1515;-58
2023/05/31 00:25:59;;;;;;;9.98;5.18;;;;;;;12.70;100.00;101558.50;701661;28;1637;-57
2023/05/31 00:26:21;;;;;;;11.63;5.57;;;;;;;12.69;100.00;101561.13;701057;28;1017;-58
2023/05/31 00:26:41;;;;;;;8.73;5.20;;;;;;;12.67;100.00;101558.53;700174;28;1624;-57
2023/05/31 00:27:01;;;;;;;8.10;5.03;;;;;;;12.68;100.00;101562.91;701757;28;895;-58
2023/05/31 00:27:23;;;;;;;9.13;5.18;;;;;;;12.66;100.00;101563.78;700715;28;1423;-57
2023/05/31 00:27:45;;;;;;;9.00;5.43;;;;;;;12.69;100.00;101556.75;699178;28;4590;-58
2023/05/31 00:28:05;;;;;;;8.07;4.40;;;;;;;12.75;100.00;101566.38;701038;28;1262;-58
2023/05/31 00:28:26;;;;;;;8.23;4.85;;;;;;;12.77;100.00;101560.25;701916;28;920;-58
2023/05/31 00:28:47;;;;;;;9.02;4.80;;;;;;;12.74;100.00;101562.88;700017;28;1631;-57
2023/05/31 00:29:10;;;;;;;8.93;4.47;;;;;;;12.72;100.00;101559.41;701421;28;1412;-57
2023/05/31 00:29:31;;;;;;;7.68;4.85;;;;;;;12.70;100.00;101563.75;700381;28;963;-58
2023/05/31 00:29:51;;;;;;;8.73;4.70;;;;;;;12.71;100.00;101567.25;700145;28;1363;-57
2023/05/31 00:30:12;;;;;;;9.57;4.97;;;;;;;12.68;100.00;101564.63;700606;28;1433;-58
2023/05/31 00:30:33;;;;;;;8.63;4.97;;;;;;;12.66;100.00;101566.38;700200;28;1918;-58
2023/05/31 00:30:53;;;;;;;8.93;4.80;;;;;;;12.66;100.00;101561.16;700619;28;4490;-58
2023/05/31 00:31:13;;;;;;;10.63;5.37;;;;;;;12.64;100.00;101563.78;698606;28;1131;-57
2023/05/31 00:31:34;;;;;;;9.52;5.40;;;;;;;12.64;100.00;101563.78;697053;28;1459;-58
2023/05/31 00:31:56;;;;;;;9.47;4.93;;;;;;;12.62;100.00;101562.88;698503;28;1247;-57
2023/05/31 00:32:16;;;;;;;10.82;4.88;;;;;;;12.61;100.00;101566.38;701364;28;1400;-58
2023/05/31 00:32:36;;;;;;;10.60;5.45;;;;;;;12.62;100.00;101562.00;700239;28;1530;-58
2023/05/31 00:32:57;;;;;;;9.47;5.03;;;;;;;12.65;100.00;101559.38;701395;28;1046;-58
2023/05/31 00:33:17;;;;;;;9.23;5.03;;;;;;;12.70;100.00;101562.91;701072;28;930;-58
2023/05/31 00:33:38;;;;;;;8.23;4.90;;;;;;;12.73;100.00;101560.28;700381;28;1514;-58
2023/05/31 00:33:58;;;;;;;8.93;5.23;;;;;;;12.67;100.00;101562.88;698382;28;4337;-57
2023/05/31 00:34:18;;;;;;;8.68;4.78;;;;;;;12.62;100.00;101559.38;698415;28;968;-58
2023/05/31 00:34:39;;;;;;;9.57;5.10;;;;;;;12.70;100.00;101555.88;694818;28;1681;-58
2023/05/31 00:34:59;;;;;;;10.33;5.10;;;;;;;12.76;100.00;101563.75;695418;28;1240;-58
2023/05/31 00:35:20;;;;;;;7.93;4.70;;;;;;;12.77;100.00;101559.41;692928;28;1303;-57
2023/05/31 00:35:40;;;;;;;9.03;4.83;;;;;;;12.72;100.00;101569.00;692040;28;1534;-58
2023/05/31 00:36:01;;;;;;;9.43;4.85;;;;;;;12.83;100.00;101563.78;696541;28;840;-57
2023/05/31 00:36:21;;;;;;;8.45;5.00;;;;;;;12.81;100.00;101563.78;696049;28;1095;-57
2023/05/31 00:36:41;;;;;;;9.53;5.00;;;;;;;12.81;100.00;101560.25;697379;28;4966;-57
2023/05/31 00:37:02;;;;;;;9.63;5.15;;;;;;;12.77;100.00;101567.28;695690;28;1445;-57
2023/05/31 00:37:23;;;;;;;7.77;4.60;;;;;;;12.74;100.00;101554.16;695943;28;919;-58
2023/05/31 00:37:43;;;;;;;8.50;4.83;;;;;;;12.71;100.00;101564.63;697374;28;1637;-57
2023/05/31 00:38:05;;;;;;;9.47;5.13;;;;;;;12.71;100.00;101562.00;696127;28;1545;-57
2023/05/31 00:38:27;;;;;;;10.15;5.10;;;;;;;12.68;100.00;101564.63;695999;28;844;-58
2023/05/31 00:38:47;;;;;;;9.77;4.80;;;;;;;12.68;100.00;101562.00;692860;28;4889;-57
2023/05/31 00:39:08;;;;;;;9.15;4.95;;;;;;;12.67;100.00;101565.50;694379;28;1289;-57
2023/05/31 00:39:28;;;;;;;9.30;4.90;;;;;;;12.67;100.00;101568.13;690462;28;1981;-57
2023/05/31 00:39:50;;;;;;;7.93;4.82;;;;;;;12.78;100.00;101571.66;693957;28;4390;-57
2023/05/31 00:40:11;;;;;;;8.02;5.28;;;;;;;12.72;100.00;101564.66;697004;28;1491;-57
2023/05/31 00:40:32;;;;;;;8.87;5.10;;;;;;;12.75;100.00;101561.13;691296;28;1443;-57
2023/05/31 00:40:54;;;;;;;8.40;4.80;;;;;;;12.71;100.00;101564.63;689904;28;873;-57
2023/05/31 00:41:14;;;;;;;8.55;5.10;;;;;;;12.77;100.00;101568.13;691125;28;934;-57
2023/05/31 00:41:35;;;;;;;8.40;4.78;;;;;;;12.76;100.00;101561.13;689956;28;1536;-58
2023/05/31 00:41:55;;;;;;;8.43;4.80;;;;;;;12.77;100.00;101565.50;693173;28;1429;-57
2023/05/31 00:42:16;;;;;;;9.73;5.18;;;;;;;12.80;100.00;101561.16;691550;28;911;-57
2023/05/31 00:42:36;;;;;;;10.02;5.50;;;;;;;12.81;100.00;101565.50;691957;28;1543;-58
2023/05/31 00:42:57;;;;;;;9.60;5.50;;;;;;;12.80;100.00;101561.16;695653;28;4529;-57
2023/05/31 00:43:17;;;;;;;9.38;5.18;;;;;;;12.78;100.00;101566.41;695448;28;1053;-57
2023/05/31 00:43:40;;;;;;;8.37;4.83;;;;;;;12.74;100.00;101559.41;694533;28;1585;-57
2023/05/31 00:44:00;;;;;;;8.77;4.95;;;;;;;12.71;100.00;101567.25;699448;28;884;-57
2023/05/31 00:44:21;;;;;;;9.67;4.83;;;;;;;12.71;100.00;101562.91;701844;28;812;-57
2023/05/31 00:44:41;;;;;;;9.03;4.90;;;;;;;12.69;100.00;101558.50;697440;28;1631;-57
2023/05/31 00:45:02;;;;;;;8.07;4.72;;;;;;;12.63;100.00;101561.13;698383;28;1277;-58
2023/05/31 00:45:23;;;;;;;8.68;5.00;;;;;;;12.71;100.00;101570.75;695874;28;897;-57
2023/05/31 00:45:43;;;;;;;7.72;4.85;;;;;;;12.71;100.00;101569.88;692230;28;4419;-57
2023/05/31 00:46:04;;;;;;;9.00;4.97;;;;;;;12.69;100.00;101569.00;697807;28;849;-58
2023/05/31 00:46:42;;;;;;;10.00;5.05;;;;;;;12.66;100.00;101564.63;698897;28;887;-58
2023/05/31 00:47:04;;;;;;;8.05;4.90;;;;;;;12.64;100.00;101563.78;698318;28;948;-58
2023/05/31 00:47:25;;;;;;;8.93;4.80;;;;;;;12.63;100.00;101567.25;701688;28;918;-57
2023/05/31 00:47:46;;;;;;;9.15;4.95;;;;;;;12.73;100.00;101568.13;698882;28;1593;-57
2023/05/31 00:48:06;;;;;;;9.83;5.27;;;;;;;12.68;100.00;101569.88;701503;28;823;-57
2023/05/31 00:48:26;;;;;;;8.83;5.00;;;;;;;12.63;100.00;101572.50;700852;28;1504;-57
2023/05/31 00:48:47;;;;;;;10.45;5.03;;;;;;;12.64;100.00;101569.03;696919;28;4656;-57
2023/05/31 00:49:07;;;;;;;11.00;5.00;;;;;;;12.61;100.00;101568.97;697638;28;1240;-57
2023/05/31 00:49:28;;;;;;;9.75;4.80;;;;;;;12.60;100.00;101568.13;698850;28;923;-57
2023/05/31 00:49:49;;;;;;;9.07;4.93;;;;;;;12.61;100.00;101571.59;696993;28;1592;-57
2023/05/31 00:50:09;;;;;;;9.40;5.10;;;;;;;12.69;100.00;101572.50;695723;28;1196;-57
2023/05/31 00:50:31;;;;;;;8.32;5.05;;;;;;;12.64;100.00;101569.03;697495;28;1473;-58
2023/05/31 00:50:51;;;;;;;8.00;4.63;;;;;;;12.77;100.00;101564.66;698566;28;917;-58
2023/05/31 00:51:12;;;;;;;7.65;4.50;;;;;;;12.75;100.00;101571.63;695798;28;888;-57
2023/05/31 00:51:33;;;;;;;8.80;5.20;;;;;;;12.72;100.00;101566.38;694475;28;1623;-58
2023/05/31 00:51:57;;;;;;;8.30;4.95;;;;;;;12.72;100.00;101571.63;693094;28;4373;-57
2023/05/31 00:52:18;;;;;;;8.35;5.05;;;;;;;12.68;100.00;101575.13;695482;28;2101;-57
2023/05/31 00:52:39;;;;;;;8.15;4.85;;;;;;;12.64;100.00;101568.13;695454;28;1713;-58
2023/05/31 00:53:00;;;;;;;7.88;4.80;;;;;;;12.62;100.00;101570.75;700072;28;932;-58
2023/05/31 00:53:22;;;;;;;8.75;4.57;;;;;;;12.61;100.00;101566.38;700657;28;1414;-57
2023/05/31 00:53:44;;;;;;;9.20;4.85;;;;;;;12.56;100.00;101569.00;698290;28;1549;-58
2023/05/31 00:54:05;;;;;;;8.90;5.10;;;;;;;12.56;100.00;101566.38;699781;28;893;-58
2023/05/31 00:54:25;;;;;;;9.52;4.90;;;;;;;12.55;100.00;101575.09;701536;28;871;-58
2023/05/31 00:54:46;;;;;;;9.33;4.97;;;;;;;12.53;100.00;101576.88;698616;28;4492;-56
2023/05/31 00:55:08;;;;;;;9.52;4.97;;;;;;;12.53;100.00;101568.09;698550;28;1059;-59
2023/05/31 00:55:30;;;;;;;9.75;4.78;;;;;;;12.58;100.00;101569.84;697947;28;904;-58
2023/05/31 00:55:52;;;;;;;8.60;4.78;;;;;;;12.58;100.00;101571.63;698309;28;929;-57
2023/05/31 00:56:13;;;;;;;9.52;5.18;;;;;;;12.57;100.00;101575.09;699055;28;869;-57
2023/05/31 00:56:33;;;;;;;9.48;5.00;;;;;;;12.57;100.00;101565.50;696884;28;1633;-58
2023/05/31 00:56:54;;;;;;;8.57;4.90;;;;;;;12.55;100.00;101567.22;698737;28;1050;-58
2023/05/31 00:57:15;;;;;;;8.75;5.05;;;;;;;12.54;100.00;101573.34;698815;28;872;-58
2023/05/31 00:57:37;;;;;;;9.45;5.40;;;;;;;12.53;100.00;101568.09;697322;28;1545;-58
2023/05/31 00:57:58;;;;;;;8.75;4.82;;;;;;;12.52;100.00;101574.25;697134;28;4511;-57
2023/05/31 00:58:19;;;;;;;8.90;5.00;;;;;;;12.51;100.00;101567.25;698881;28;760;-58
2023/05/31 00:58:44;;;;;;;9.30;5.05;;;;;;;12.49;100.00;101563.72;694086;28;1646;-58
2023/05/31 00:59:05;;;;;;;8.27;4.82;;;;;;;12.47;100.00;101571.59;698047;28;1319;-58
2023/05/31 00:59:25;;;;;;;9.07;5.03;;;;;;;12.47;100.00;101566.34;695918;28;1965;-58
2023/05/31 00:59:46;;;;;;;11.10;5.03;;;;;;;12.46;100.00;101567.25;694258;28;1595;-58
2023/05/31 01:00:08;;;;;;;9.80;4.73;;;;;;;12.46;100.00;101568.97;695787;28;777;-57
2023/05/31 01:00:31;;;;;;;9.50;5.18;;;;;;;12.49;100.00;101569.84;696084;28;1334;-58
2023/05/31 01:00:52;;;;;;;9.07;4.93;;;;;;;12.46;100.00;101572.47;697649;28;4496;-58
2023/05/31 01:01:16;;;;;;;9.18;5.32;;;;;;;12.49;100.00;101567.25;698801;28;1397;-58
2023/05/31 01:01:38;;;;;;;9.98;4.97;;;;;;;12.47;100.00;101568.09;696610;28;1810;-58
2023/05/31 01:01:59;;;;;;;9.23;5.25;;;;;;;12.47;100.00;101570.72;698309;28;1226;-58
2023/05/31 01:02:19;;;;;;;9.20;5.10;;;;;;;12.43;100.00;101570.72;698218;28;2167;-57
2023/05/31 01:02:41;;;;;;;8.10;4.43;;;;;;;12.40;100.00;101564.59;699650;28;1509;-58
2023/05/31 01:03:02;;;;;;;8.35;5.15;;;;;;;12.45;100.00;101565.47;701506;28;934;-58
2023/05/31 01:03:22;;;;;;;8.20;4.82;;;;;;;12.44;100.00;101567.22;700311;28;1282;-58
2023/05/31 01:03:43;;;;;;;7.90;4.68;;;;;;;12.48;100.00;101564.63;699635;28;4516;-58
2023/05/31 01:04:04;;;;;;;8.33;4.90;;;;;;;12.45;100.00;101568.09;701469;28;1328;-57
2023/05/31 01:04:25;;;;;;;8.25;4.82;;;;;;;12.40;100.00;101567.22;701388;28;1518;-58
2023/05/31 01:04:47;;;;;;;9.10;4.95;;;;;;;12.41;100.00;101572.47;699778;28;1892;-58
2023/05/31 01:05:08;;;;;;;9.50;5.00;;;;;;;12.44;100.00;101568.97;701041;28;903;-58
2023/05/31 01:05:29;;;;;;;9.05;4.75;;;;;;;12.40;100.00;101564.59;698478;28;1217;-58
2023/05/31 01:05:49;;;;;;;10.80;4.90;;;;;;;12.38;100.00;101563.72;695321;28;1073;-58
2023/05/31 01:06:10;;;;;;;11.80;5.18;;;;;;;12.36;100.00;101565.44;695463;28;1528;-58
2023/05/31 01:06:32;;;;;;;8.15;4.65;;;;;;;12.37;100.00;101567.22;694642;28;1574;-58
2023/05/31 01:06:52;;;;;;;8.82;5.00;;;;;;;12.35;100.00;101563.69;695311;28;4344;-58
2023/05/31 01:07:15;;;;;;;9.13;5.30;;;;;;;12.33;100.00;101563.69;693872;28;1340;-58
2023/05/31 01:07:37;;;;;;;8.75;4.97;;;;;;;12.33;100.00;101568.94;695066;28;1489;-58
2023/05/31 01:07:57;;;;;;;8.05;4.80;;;;;;;12.33;100.00;101562.84;695206;28;798;-58
2023/05/31 01:08:19;;;;;;;7.97;4.93;;;;;;;12.32;100.00;101564.56;696790;28;849;-58
2023/05/31 01:08:42;;;;;;;8.07;5.03;;;;;;;12.29;100.00;101564.56;694192;28;1578;-58
2023/05/31 01:09:07;;;;;;;8.02;4.88;;;;;;;12.29;100.00;101561.06;695317;28;896;-58
2023/05/31 01:09:30;;;;;;;9.55;4.88;;;;;;;12.29;100.00;101561.06;694660;28;1127;-58
2023/05/31 01:09:52;;;;;;;9.65;5.22;;;;;;;12.28;100.00;101565.44;697103;28;4565;-58
2023/05/31 01:10:13;;;;;;;10.07;5.45;;;;;;;12.28;100.00;101565.44;698043;28;809;-58
2023/05/31 01:10:33;;;;;;;8.98;5.18;;;;;;;12.21;100.00;101569.81;695797;28;2087;-58
2023/05/31 01:10:59;;;;;;;10.27;5.60;;;;;;;12.25;100.00;101573.28;698714;28;1405;-58
2023/05/31 01:11:40;;;;;;;8.85;4.90;;;;;;;12.26;100.00;101570.66;698662;28;984;-58
2023/05/31 01:12:29;;;;;;;10.18;5.63;;;;;;;12.27;100.00;101564.56;698366;28;1281;-58
2023/05/31 01:13:35;;;;;;;10.23;4.88;;;;;;;12.23;100.00;101568.03;695205;28;4332;-58
2023/05/31 01:14:12;;;;;;;9.40;4.80;;;;;;;12.27;100.00;101559.31;698147;28;1309;-58
2023/05/31 01:15:13;;;;;;;8.57;5.07;;;;;;;12.24;100.00;101561.94;699874;28;1514;-58
2023/05/31 01:15:45;;;;;;;10.15;5.15;;;;;;;12.25;100.00;101568.94;699026;28;1462;-58
2023/05/31 01:16:20;;;;;;;9.63;5.60;;;;;;;12.26;100.00;101565.41;700612;28;4739;-58
2023/05/31 01:16:47;;;;;;;9.98;5.00;;;;;;;12.27;100.00;101555.84;699457;28;1462;-58
2023/05/31 01:17:22;;;;;;;9.02;5.30;;;;;;;12.29;100.00;101561.94;701227;28;796;-58
2023/05/31 01:17:50;;;;;;;10.18;4.72;;;;;;;12.31;100.00;101565.44;700229;28;1519;-58
2023/05/31 01:18:31;;;;;;;8.90;5.07;;;;;;;12.25;100.00;101555.84;701656;28;801;-58
2023/05/31 01:19:03;;;;;;;9.32;5.05;;;;;;;12.30;100.00;101557.59;700489;28;4538;-58
2023/05/31 01:19:52;;;;;;;8.18;5.00;;;;;;;12.34;100.00;101559.34;698400;28;1959;-58
2023/05/31 01:20:17;;;;;;;9.13;5.13;;;;;;;12.30;100.00;101554.97;698094;28;1187;-58
2023/05/31 01:20:43;;;;;;;8.40;5.25;;;;;;;12.28;100.00;101554.97;696241;28;1542;-58
2023/05/31 01:21:05;;;;;;;10.32;5.07;;;;;;;12.26;100.00;101557.56;698202;28;1352;-58
2023/05/31 01:21:51;;;;;;;8.55;4.80;;;;;;;12.23;100.00;101557.56;701565;28;931;-57
2023/05/31 01:22:35;;;;;;;10.15;4.97;;;;;;;12.20;100.00;101557.56;700542;28;4944;-58
2023/05/31 01:23:40;;;;;;;10.10;5.40;;;;;;;12.21;100.00;101553.19;700952;28;1002;-58
2023/05/31 01:24:22;;;;;;;9.77;5.22;;;;;;;12.14;100.00;101552.28;701677;28;3759;-58
2023/05/31 01:25:13;;;;;;;8.68;5.20;;;;;;;12.12;100.00;101556.66;699129;28;4593;-58
2023/05/31 01:25:56;;;;;;;8.10;4.80;;;;;;;12.10;100.00;101561.00;696595;28;1621;-58
2023/05/31 01:26:35;;;;;;;8.73;5.18;;;;;;;12.07;100.00;101548.78;695261;28;1065;-57
2023/05/31 01:27:00;;;;;;;10.27;4.88;;;;;;;12.07;100.00;101553.13;698644;28;903;-58
2023/05/31 01:27:22;;;;;;;9.02;4.93;;;;;;;12.07;100.00;101555.75;696086;28;1476;-58
2023/05/31 01:27:45;;;;;;;8.25;4.75;;;;;;;12.07;100.00;101555.75;694368;28;4623;-57
2023/05/31 01:28:09;;;;;;;8.40;4.82;;;;;;;12.05;100.00;101552.28;696388;28;1129;-58
2023/05/31 01:28:33;;;;;;;8.23;4.63;;;;;;;12.04;100.00;101555.75;696068;28;1635;-57
2023/05/31 01:28:59;;;;;;;7.82;4.75;;;;;;;12.02;100.00;101552.25;695424;28;1449;-58
2023/05/31 01:29:23;;;;;;;8.07;5.05;;;;;;;12.01;100.00;101559.22;697557;28;1551;-58
2023/05/31 01:29:44;;;;;;;8.23;4.80;;;;;;;12.02;100.00;101552.25;696424;28;1468;-58
2023/05/31 01:30:07;;;;;;;8.68;4.78;;;;;;;12.03;100.00;101554.00;698405;28;899;-58
2023/05/31 01:30:29;;;;;;;8.48;4.78;;;;;;;11.99;100.00;101557.47;697591;28;1211;-58
2023/05/31 01:30:52;;;;;;;8.32;4.63;;;;;;;12.01;100.00;101555.75;695716;28;4625;-58
2023/05/31 01:31:16;;;;;;;8.82;4.95;;;;;;;12.06;100.00;101557.50;698418;28;821;-58
2023/05/31 01:31:39;;;;;;;9.38;4.85;;;;;;;12.07;100.00;101556.66;696242;28;1548;-58
2023/05/31 01:32:00;;;;;;;8.13;5.03;;;;;;;12.13;100.00;101555.78;698163;28;778;-58
2023/05/31 01:32:23;;;;;;;9.98;5.10;;;;;;;12.09;100.00;101562.75;698109;28;1531;-58
2023/05/31 01:32:45;;;;;;;11.60;5.05;;;;;;;12.07;100.00;101558.38;696348;28;1459;-58
2023/05/31 01:33:10;;;;;;;11.07;5.20;;;;;;;12.07;100.00;101561.00;698713;28;991;-58
2023/05/31 01:33:31;;;;;;;8.25;4.80;;;;;;;12.05;100.00;101558.38;699996;28;2077;-58
2023/05/31 01:33:53;;;;;;;9.63;5.00;;;;;;;12.03;100.00;101554.88;699485;28;4462;-58
2023/05/31 01:34:14;;;;;;;9.95;5.22;;;;;;;12.03;100.00;101559.22;695481;28;1389;-58
2023/05/31 01:34:36;;;;;;;9.07;4.88;;;;;;;12.01;100.00;101555.75;697499;28;1585;-58
2023/05/31 01:34:56;;;;;;;8.80;4.97;;;;;;;12.06;100.00;101559.28;695734;28;1227;-58
2023/05/31 01:35:17;;;;;;;9.30;5.07;;;;;;;12.07;100.00;101561.91;695726;28;904;-57
2023/05/31 01:35:38;;;;;;;10.45;5.20;;;;;;;12.08;100.00;101552.28;690944;28;1632;-58
2023/05/31 01:36:03;;;;;;;9.98;4.97;;;;;;;12.01;100.00;101555.75;694231;28;975;-58
2023/05/31 01:36:23;;;;;;;10.23;4.93;;;;;;;11.98;100.00;101555.75;692773;28;1899;-58
2023/05/31 01:36:44;;;;;;;8.77;4.73;;;;;;;11.98;100.00;101561.84;692342;28;5294;-57
2023/05/31 01:37:05;;;;;;;9.00;5.10;;;;;;;11.98;100.00;101548.75;695920;28;1425;-58
2023/05/31 01:37:25;;;;;;;9.05;5.32;;;;;;;11.99;100.00;101557.47;694350;28;863;-58
2023/05/31 01:37:46;;;;;;;8.90;5.40;;;;;;;12.01;100.00;101556.63;694161;28;1634;-58
2023/05/31 01:38:06;;;;;;;8.68;5.28;;;;;;;11.98;100.00;101559.22;692706;28;1267;-58
2023/05/31 01:38:26;;;;;;;9.97;5.03;;;;;;;11.90;100.00;101556.53;695696;28;920;-58
2023/05/31 01:38:48;;;;;;;8.65;4.90;;;;;;;11.90;100.00;101558.28;691809;28;4671;-58
2023/05/31 01:39:10;;;;;;;9.85;5.38;;;;;;;11.90;100.00;101558.28;696054;28;1158;-58
2023/05/31 01:39:31;;;;;;;9.52;5.15;;;;;;;11.91;100.00;101557.44;693230;28;1922;-58
2023/05/31 01:39:54;;;;;;;9.45;5.22;;;;;;;11.89;100.00;101557.44;689288;28;4368;-58
2023/05/31 01:40:16;;;;;;;9.00;5.33;;;;;;;11.88;100.00;101555.66;690689;28;912;-57
2023/05/31 01:40:38;;;;;;;10.18;5.68;;;;;;;11.87;100.00;101559.16;688947;28;1590;-58
2023/05/31 01:41:01;;;;;;;10.48;5.47;;;;;;;11.93;100.00;101560.91;690135;28;1284;-58
2023/05/31 01:41:26;;;;;;;9.98;4.88;;;;;;;11.92;100.00;101554.81;691947;28;781;-58
2023/05/31 01:41:48;;;;;;;9.60;5.35;;;;;;;11.98;100.00;101558.38;692329;28;1863;-58
2023/05/31 01:42:10;;;;;;;8.80;5.13;;;;;;;11.99;100.00;101560.09;697869;28;1452;-58
2023/05/31 01:42:31;;;;;;;9.88;5.57;;;;;;;12.03;100.00;101560.13;697517;28;1237;-58
2023/05/31 01:42:53;;;;;;;10.30;5.60;;;;;;;12.03;100.00;101556.63;696816;28;5174;-58
2023/05/31 01:43:16;;;;;;;10.07;5.30;;;;;;;12.02;100.00;101561.00;695699;28;1195;-58
2023/05/31 01:43:43;;;;;;;9.10;5.20;;;;;;;12.08;100.00;101557.50;689537;28;1670;-58
2023/05/31 01:44:04;;;;;;;8.90;4.78;;;;;;;12.04;100.00;101558.38;693048;28;913;-58
2023/05/31 01:44:29;;;;;;;8.65;4.90;;;;;;;12.03;100.00;101556.63;692730;28;1432;-58
2023/05/31 01:44:51;;;;;;;8.13;4.93;;;;;;;12.03;100.00;101554.00;693682;28;1619;-58
2023/05/31 01:45:14;;;;;;;9.10;5.05;;;;;;;12.04;100.00;101561.00;694911;28;1476;-58
2023/05/31 01:45:36;;;;;;;8.23;5.13;;;;;;;12.01;100.00;101561.00;693258;28;1815;-58
2023/05/31 01:45:58;;;;;;;8.90;4.85;;;;;;;12.01;100.00;101558.38;691460;28;4286;-58
2023/05/31 01:46:20;;;;;;;8.80;4.78;;;;;;;12.04;100.00;101561.00;694011;28;1290;-58
2023/05/31 01:46:42;;;;;;;8.55;4.72;;;;;;;11.99;100.00;101557.47;690900;28;1690;-58
2023/05/31 01:47:03;;;;;;;9.63;4.90;;;;;;;11.97;100.00;101554.00;693961;28;1541;-58
2023/05/31 01:47:25;;;;;;;8.27;5.05;;;;;;;11.99;100.00;101562.72;694350;28;832;-58
2023/05/31 01:47:48;;;;;;;8.55;5.15;;;;;;;11.97;100.00;101564.47;694683;28;1446;-58